Terminal Aerodrome Forecast
Issued by NWS

Home | Current Version | Previous Version | Graphics & Text | Print | Product List | Glossary On
Versions: 1 2 3 4 5 6 7 8 9 10 11 12
000
FTUS45 KGGW 221135
TAFOLF
TAF
KOLF 221135Z 2212/2312 25005KT P6SM BKN015
     FM221500 24009KT P6SM SCT250
     FM221800 25013KT P6SM FEW250
     FM230300 25007KT P6SM FEW200=

USA.gov is the U.S. government's official web portal to all federal, state and local government web resources and services.